sensor_id;sensor_type;location;lat;lon;timestamp;temperature;humidity
2651;DHT22;1335;48.180;16.342;2022-09-13T00:00:51;14.30;99.90
2651;DHT22;1335;48.180;16.342;2022-09-13T00:03:19;14.70;99.90
2651;DHT22;1335;48.180;16.342;2022-09-13T00:05:48;15.30;99.90
2651;DHT22;1335;48.180;16.342;2022-09-13T00:08:17;14.70;99.90
2651;DHT22;1335;48.180;16.342;2022-09-13T00:10:45;14.20;99.90
2651;DHT22;1335;48.180;16.342;2022-09-13T00:13:14;15.00;99.90
2651;DHT22;1335;48.180;16.342;2022-09-13T00:15:43;13.90;99.90
2651;DHT22;1335;48.180;16.342;2022-09-13T00:18:10;14.60;99.90
2651;DHT22;1335;48.180;16.342;2022-09-13T00:20:38;13.90;99.90
2651;DHT22;1335;48.180;16.342;2022-09-13T00:23:05;14.10;99.90
2651;DHT22;1335;48.180;16.342;2022-09-13T00:25:34;14.00;99.90
2651;DHT22;1335;48.180;16.342;2022-09-13T00:28:02;13.90;99.90
2651;DHT22;1335;48.180;16.342;2022-09-13T00:30:32;13.80;99.90
2651;DHT22;1335;48.180;16.342;2022-09-13T00:33:00;14.30;99.90
2651;DHT22;1335;48.180;16.342;2022-09-13T00:35:29;13.20;99.90
2651;DHT22;1335;48.180;16.342;2022-09-13T00:37:58;14.00;99.90
2651;DHT22;1335;48.180;16.342;2022-09-13T00:40:26;13.60;99.90
2651;DHT22;1335;48.180;16.342;2022-09-13T00:42:56;13.50;99.90
2651;DHT22;1335;48.180;16.342;2022-09-13T00:45:23;14.20;99.90
2651;DHT22;1335;48.180;16.342;2022-09-13T00:47:54;13.60;99.90
2651;DHT22;1335;48.180;16.342;2022-09-13T00:50:27;13.60;99.90
2651;DHT22;1335;48.180;16.342;2022-09-13T00:52:59;13.00;99.90
2651;DHT22;1335;48.180;16.342;2022-09-13T00:55:29;13.50;99.90
2651;DHT22;1335;48.180;16.342;2022-09-13T00:58:01;13.60;99.90
2651;DHT22;1335;48.180;16.342;2022-09-13T01:00:30;13.60;99.90
2651;DHT22;1335;48.180;16.342;2022-09-13T01:03:00;13.70;99.90
2651;DHT22;1335;48.180;16.342;2022-09-13T01:05:35;13.30;99.90
2651;DHT22;1335;48.180;16.342;2022-09-13T01:08:07;13.50;99.90
2651;DHT22;1335;48.180;16.342;2022-09-13T01:10:47;13.20;99.90
2651;DHT22;1335;48.180;16.342;2022-09-13T01:13:19;13.20;99.90
2651;DHT22;1335;48.180;16.342;2022-09-13T01:15:47;13.10;99.90
2651;DHT22;1335;48.180;16.342;2022-09-13T01:18:15;13.50;99.90
2651;DHT22;1335;48.180;16.342;2022-09-13T01:21:11;13.10;99.90
2651;DHT22;1335;48.180;16.342;2022-09-13T01:24:04;13.20;99.90
2651;DHT22;1335;48.180;16.342;2022-09-13T01:27:14;13.10;99.90
2651;DHT22;1335;48.180;16.342;2022-09-13T01:30:15;12.90;99.90
2651;DHT22;1335;48.180;16.342;2022-09-13T01:33:05;13.40;99.90
2651;DHT22;1335;48.180;16.342;2022-09-13T01:35:51;13.20;99.90
2651;DHT22;1335;48.180;16.342;2022-09-13T01:38:47;12.90;99.90
2651;DHT22;1335;48.180;16.342;2022-09-13T01:41:31;12.90;99.90
2651;DHT22;1335;48.180;16.342;2022-09-13T01:44:12;12.70;99.90
2651;DHT22;1335;48.180;16.342;2022-09-13T01:46:48;12.60;99.90
2651;DHT22;1335;48.180;16.342;2022-09-13T01:49:20;13.20;99.90
2651;DHT22;1335;48.180;16.342;2022-09-13T01:51:55;12.40;99.90
2651;DHT22;1335;48.180;16.342;2022-09-13T01:54:31;13.00;99.90
2651;DHT22;1335;48.180;16.342;2022-09-13T01:57:05;13.10;99.90
2651;DHT22;1335;48.180;16.342;2022-09-13T01:59:38;12.10;99.90
2651;DHT22;1335;48.180;16.342;2022-09-13T02:02:13;13.00;99.90
2651;DHT22;1335;48.180;16.342;2022-09-13T02:04:46;13.00;99.90
2651;DHT22;1335;48.180;16.342;2022-09-13T02:07:18;12.90;99.90
2651;DHT22;1335;48.180;16.342;2022-09-13T02:09:48;12.90;99.90
2651;DHT22;1335;48.180;16.342;2022-09-13T02:12:19;12.80;99.90
2651;DHT22;1335;48.180;16.342;2022-09-13T02:14:51;12.70;99.90
2651;DHT22;1335;48.180;16.342;2022-09-13T02:17:23;12.70;99.90
2651;DHT22;1335;48.180;16.342;2022-09-13T02:19:53;12.60;99.90
2651;DHT22;1335;48.180;16.342;2022-09-13T02:22:26;12.60;99.90
2651;DHT22;1335;48.180;16.342;2022-09-13T02:25:06;13.00;99.90
2651;DHT22;1335;48.180;16.342;2022-09-13T02:27:36;12.20;99.90
2651;DHT22;1335;48.180;16.342;2022-09-13T02:30:07;12.50;99.90
2651;DHT22;1335;48.180;16.342;2022-09-13T02:32:39;12.60;99.90
2651;DHT22;1335;48.180;16.342;2022-09-13T02:35:12;12.60;99.90
2651;DHT22;1335;48.180;16.342;2022-09-13T02:37:44;12.70;99.90
2651;DHT22;1335;48.180;16.342;2022-09-13T02:40:15;12.20;99.90
2651;DHT22;1335;48.180;16.342;2022-09-13T02:42:50;12.80;99.90
2651;DHT22;1335;48.180;16.342;2022-09-13T02:45:21;12.90;99.90
2651;DHT22;1335;48.180;16.342;2022-09-13T02:47:55;12.40;99.90
2651;DHT22;1335;48.180;16.342;2022-09-13T02:50:36;12.20;99.90
2651;DHT22;1335;48.180;16.342;2022-09-13T02:53:11;12.70;99.90
2651;DHT22;1335;48.180;16.342;2022-09-13T02:55:46;12.60;99.90
2651;DHT22;1335;48.180;16.342;2022-09-13T02:58:20;12.10;99.90
2651;DHT22;1335;48.180;16.342;2022-09-13T03:00:51;12.40;99.90
2651;DHT22;1335;48.180;16.342;2022-09-13T03:03:20;12.20;99.90
2651;DHT22;1335;48.180;16.342;2022-09-13T03:05:47;12.40;99.90
2651;DHT22;1335;48.180;16.342;2022-09-13T03:08:15;12.40;99.90
2651;DHT22;1335;48.180;16.342;2022-09-13T03:10:50;12.40;99.90
2651;DHT22;1335;48.180;16.342;2022-09-13T03:14:01;12.30;99.90
2651;DHT22;1335;48.180;16.342;2022-09-13T03:16:45;11.90;99.90
2651;DHT22;1335;48.180;16.342;2022-09-13T03:19:29;12.10;99.90
2651;DHT22;1335;48.180;16.342;2022-09-13T03:22:14;12.60;99.90
2651;DHT22;1335;48.180;16.342;2022-09-13T03:24:53;12.10;99.90
2651;DHT22;1335;48.180;16.342;2022-09-13T03:27:32;12.30;99.90
2651;DHT22;1335;48.180;16.342;2022-09-13T03:30:03;12.90;99.90
2651;DHT22;1335;48.180;16.342;2022-09-13T03:32:35;12.20;99.90
2651;DHT22;1335;48.180;16.342;2022-09-13T03:35:16;12.70;99.90
2651;DHT22;1335;48.180;16.342;2022-09-13T03:37:52;11.70;99.90
2651;DHT22;1335;48.180;16.342;2022-09-13T03:40:27;12.40;99.90
2651;DHT22;1335;48.180;16.342;2022-09-13T03:43:00;12.10;99.90
2651;DHT22;1335;48.180;16.342;2022-09-13T03:45:32;12.70;99.90
2651;DHT22;1335;48.180;16.342;2022-09-13T03:48:03;12.40;99.90
2651;DHT22;1335;48.180;16.342;2022-09-13T03:50:32;11.80;99.90
2651;DHT22;1335;48.180;16.342;2022-09-13T03:53:03;12.50;99.90
2651;DHT22;1335;48.180;16.342;2022-09-13T03:55:34;11.90;99.90
2651;DHT22;1335;48.180;16.342;2022-09-13T03:58:05;12.70;99.90
2651;DHT22;1335;48.180;16.342;2022-09-13T04:00:32;12.20;99.90
2651;DHT22;1335;48.180;16.342;2022-09-13T04:02:59;12.00;99.90
2651;DHT22;1335;48.180;16.342;2022-09-13T04:05:26;12.20;99.90
2651;DHT22;1335;48.180;16.342;2022-09-13T04:07:56;12.30;99.90
2651;DHT22;1335;48.180;16.342;2022-09-13T04:10:23;12.00;99.90
2651;DHT22;1335;48.180;16.342;2022-09-13T04:12:50;12.20;99.90
2651;DHT22;1335;48.180;16.342;2022-09-13T04:15:19;11.90;99.90
2651;DHT22;1335;48.180;16.342;2022-09-13T04:17:46;11.60;99.90
2651;DHT22;1335;48.180;16.342;2022-09-13T04:20:14;12.00;99.90
2651;DHT22;1335;48.180;16.342;2022-09-13T04:22:41;11.90;99.90
2651;DHT22;1335;48.180;16.342;2022-09-13T04:25:12;12.10;99.90
2651;DHT22;1335;48.180;16.342;2022-09-13T04:27:39;11.60;99.90
2651;DHT22;1335;48.180;16.342;2022-09-13T04:30:08;12.10;99.90
2651;DHT22;1335;48.180;16.342;2022-09-13T04:32:36;11.90;99.90
2651;DHT22;1335;48.180;16.342;2022-09-13T04:35:03;11.20;99.90
2651;DHT22;1335;48.180;16.342;2022-09-13T04:37:34;12.10;99.90
2651;DHT22;1335;48.180;16.342;2022-09-13T04:40:01;11.60;99.90
2651;DHT22;1335;48.180;16.342;2022-09-13T04:42:30;12.70;99.90
2651;DHT22;1335;48.180;16.342;2022-09-13T04:44:57;12.00;99.90
2651;DHT22;1335;48.180;16.342;2022-09-13T04:47:25;12.00;99.90
2651;DHT22;1335;48.180;16.342;2022-09-13T04:49:53;12.00;99.90
2651;DHT22;1335;48.180;16.342;2022-09-13T04:52:20;12.00;99.90
2651;DHT22;1335;48.180;16.342;2022-09-13T04:54:48;12.10;99.90
2651;DHT22;1335;48.180;16.342;2022-09-13T04:57:15;12.50;99.90
2651;DHT22;1335;48.180;16.342;2022-09-13T04:59:45;12.30;99.90
2651;DHT22;1335;48.180;16.342;2022-09-13T05:02:13;12.10;99.90
2651;DHT22;1335;48.180;16.342;2022-09-13T05:04:40;12.10;99.90
2651;DHT22;1335;48.180;16.342;2022-09-13T05:07:07;12.80;99.90
2651;DHT22;1335;48.180;16.342;2022-09-13T05:09:35;11.90;99.90
2651;DHT22;1335;48.180;16.342;2022-09-13T05:12:03;12.60;99.90
2651;DHT22;1335;48.180;16.342;2022-09-13T05:14:30;12.50;99.90
2651;DHT22;1335;48.180;16.342;2022-09-13T05:17:02;12.30;99.90
2651;DHT22;1335;48.180;16.342;2022-09-13T05:19:29;12.60;99.90
2651;DHT22;1335;48.180;16.342;2022-09-13T05:21:57;13.20;99.90
2651;DHT22;1335;48.180;16.342;2022-09-13T05:24:24;12.60;99.90
2651;DHT22;1335;48.180;16.342;2022-09-13T05:26:51;13.10;99.90
2651;DHT22;1335;48.180;16.342;2022-09-13T05:29:19;13.00;99.90
2651;DHT22;1335;48.180;16.342;2022-09-13T05:31:47;12.80;99.90
2651;DHT22;1335;48.180;16.342;2022-09-13T05:34:16;14.80;99.90
2651;DHT22;1335;48.180;16.342;2022-09-13T05:36:46;17.20;99.90
2651;DHT22;1335;48.180;16.342;2022-09-13T05:39:16;19.50;99.90
2651;DHT22;1335;48.180;16.342;2022-09-13T05:41:48;22.40;99.90
2651;DHT22;1335;48.180;16.342;2022-09-13T05:44:16;23.00;99.90
2651;DHT22;1335;48.180;16.342;2022-09-13T05:46:46;24.60;99.90
2651;DHT22;1335;48.180;16.342;2022-09-13T05:49:14;25.60;99.90
2651;DHT22;1335;48.180;16.342;2022-09-13T05:51:44;25.50;99.90
2651;DHT22;1335;48.180;16.342;2022-09-13T05:54:11;26.60;99.90
2651;DHT22;1335;48.180;16.342;2022-09-13T05:56:39;27.30;99.90
2651;DHT22;1335;48.180;16.342;2022-09-13T05:59:09;28.20;99.90
2651;DHT22;1335;48.180;16.342;2022-09-13T06:01:37;29.00;99.90
2651;DHT22;1335;48.180;16.342;2022-09-13T06:04:10;27.90;99.90
2651;DHT22;1335;48.180;16.342;2022-09-13T06:06:40;29.60;99.90
2651;DHT22;1335;48.180;16.342;2022-09-13T06:09:10;30.00;99.90
2651;DHT22;1335;48.180;16.342;2022-09-13T06:11:38;31.00;99.90
2651;DHT22;1335;48.180;16.342;2022-09-13T06:14:05;30.80;99.90
2651;DHT22;1335;48.180;16.342;2022-09-13T06:16:32;29.70;99.90
2651;DHT22;1335;48.180;16.342;2022-09-13T06:19:02;30.60;99.90
2651;DHT22;1335;48.180;16.342;2022-09-13T06:21:29;30.70;99.90
2651;DHT22;1335;48.180;16.342;2022-09-13T06:23:57;31.20;99.90
2651;DHT22;1335;48.180;16.342;2022-09-13T06:26:27;31.20;99.90
2651;DHT22;1335;48.180;16.342;2022-09-13T06:28:57;31.00;99.90
2651;DHT22;1335;48.180;16.342;2022-09-13T06:31:26;29.70;99.90
2651;DHT22;1335;48.180;16.342;2022-09-13T06:33:59;30.20;99.90
2651;DHT22;1335;48.180;16.342;2022-09-13T06:36:31;31.60;99.90
2651;DHT22;1335;48.180;16.342;2022-09-13T06:38:59;32.00;99.90
2651;DHT22;1335;48.180;16.342;2022-09-13T06:41:28;30.00;99.90
2651;DHT22;1335;48.180;16.342;2022-09-13T06:43:58;28.50;99.90
2651;DHT22;1335;48.180;16.342;2022-09-13T06:46:27;30.70;99.90
2651;DHT22;1335;48.180;16.342;2022-09-13T06:48:54;28.00;99.90
2651;DHT22;1335;48.180;16.342;2022-09-13T06:51:25;26.60;99.90
2651;DHT22;1335;48.180;16.342;2022-09-13T06:53:54;29.70;99.90
2651;DHT22;1335;48.180;16.342;2022-09-13T06:56:23;26.70;99.90
2651;DHT22;1335;48.180;16.342;2022-09-13T06:58:57;26.50;99.90
2651;DHT22;1335;48.180;16.342;2022-09-13T07:01:26;24.50;99.90
2651;DHT22;1335;48.180;16.342;2022-09-13T07:03:58;23.80;99.90
2651;DHT22;1335;48.180;16.342;2022-09-13T07:06:28;25.00;99.90
2651;DHT22;1335;48.180;16.342;2022-09-13T07:08:57;27.00;99.90
2651;DHT22;1335;48.180;16.342;2022-09-13T07:11:28;27.90;99.90
2651;DHT22;1335;48.180;16.342;2022-09-13T07:13:59;29.00;99.90
2651;DHT22;1335;48.180;16.342;2022-09-13T07:16:29;30.10;99.90
2651;DHT22;1335;48.180;16.342;2022-09-13T07:18:59;28.40;99.90
2651;DHT22;1335;48.180;16.342;2022-09-13T07:21:31;28.00;99.90
2651;DHT22;1335;48.180;16.342;2022-09-13T07:23:59;25.90;99.90
2651;DHT22;1335;48.180;16.342;2022-09-13T07:26:31;23.10;99.90
2651;DHT22;1335;48.180;16.342;2022-09-13T07:29:11;24.50;99.90
2651;DHT22;1335;48.180;16.342;2022-09-13T07:31:41;21.00;99.90
2651;DHT22;1335;48.180;16.342;2022-09-13T07:34:12;22.70;99.90
2651;DHT22;1335;48.180;16.342;2022-09-13T07:36:54;28.40;99.90
2651;DHT22;1335;48.180;16.342;2022-09-13T07:39:26;29.80;99.90
2651;DHT22;1335;48.180;16.342;2022-09-13T07:41:54;29.80;99.90
2651;DHT22;1335;48.180;16.342;2022-09-13T07:44:23;29.10;99.90
2651;DHT22;1335;48.180;16.342;2022-09-13T07:46:51;27.90;99.90
2651;DHT22;1335;48.180;16.342;2022-09-13T07:49:19;27.10;99.90
2651;DHT22;1335;48.180;16.342;2022-09-13T07:51:46;28.90;99.90
2651;DHT22;1335;48.180;16.342;2022-09-13T07:54:17;25.80;99.90
2651;DHT22;1335;48.180;16.342;2022-09-13T07:56:46;25.00;99.90
2651;DHT22;1335;48.180;16.342;2022-09-13T07:59:15;24.10;99.90
2651;DHT22;1335;48.180;16.342;2022-09-13T08:01:48;22.50;99.90
2651;DHT22;1335;48.180;16.342;2022-09-13T08:04:18;26.10;99.90
2651;DHT22;1335;48.180;16.342;2022-09-13T08:06:46;25.10;99.90
2651;DHT22;1335;48.180;16.342;2022-09-13T08:09:14;24.70;99.90
2651;DHT22;1335;48.180;16.342;2022-09-13T08:11:42;24.70;99.90
2651;DHT22;1335;48.180;16.342;2022-09-13T08:14:12;25.70;99.90
2651;DHT22;1335;48.180;16.342;2022-09-13T08:16:40;24.50;99.90
2651;DHT22;1335;48.180;16.342;2022-09-13T08:19:11;25.30;99.90
2651;DHT22;1335;48.180;16.342;2022-09-13T08:21:40;26.30;99.90
2651;DHT22;1335;48.180;16.342;2022-09-13T08:24:13;29.60;99.90
2651;DHT22;1335;48.180;16.342;2022-09-13T08:26:41;29.40;99.90
2651;DHT22;1335;48.180;16.342;2022-09-13T08:29:10;27.10;99.90
2651;DHT22;1335;48.180;16.342;2022-09-13T08:31:38;28.10;99.90
2651;DHT22;1335;48.180;16.342;2022-09-13T08:34:10;29.20;99.90
2651;DHT22;1335;48.180;16.342;2022-09-13T08:36:39;31.50;99.90
2651;DHT22;1335;48.180;16.342;2022-09-13T08:39:08;33.80;99.90
2651;DHT22;1335;48.180;16.342;2022-09-13T08:42:03;25.10;99.90
2651;DHT22;1335;48.180;16.342;2022-09-13T08:44:35;28.30;99.90
2651;DHT22;1335;48.180;16.342;2022-09-13T08:47:20;33.70;99.90
2651;DHT22;1335;48.180;16.342;2022-09-13T08:49:53;28.60;99.90
2651;DHT22;1335;48.180;16.342;2022-09-13T08:52:28;29.30;99.90
2651;DHT22;1335;48.180;16.342;2022-09-13T08:54:56;29.10;99.90
2651;DHT22;1335;48.180;16.342;2022-09-13T08:57:30;27.10;99.90
2651;DHT22;1335;48.180;16.342;2022-09-13T09:00:03;29.90;99.90
2651;DHT22;1335;48.180;16.342;2022-09-13T09:02:51;27.10;99.90
2651;DHT22;1335;48.180;16.342;2022-09-13T09:05:25;25.20;99.90
2651;DHT22;1335;48.180;16.342;2022-09-13T09:07:56;24.30;99.90
2651;DHT22;1335;48.180;16.342;2022-09-13T09:10:27;30.00;99.90
2651;DHT22;1335;48.180;16.342;2022-09-13T09:13:00;31.20;99.90
2651;DHT22;1335;48.180;16.342;2022-09-13T09:15:31;31.20;99.90
2651;DHT22;1335;48.180;16.342;2022-09-13T09:18:02;26.80;99.90
2651;DHT22;1335;48.180;16.342;2022-09-13T09:20:38;29.20;99.90
2651;DHT22;1335;48.180;16.342;2022-09-13T09:23:12;32.20;99.90
2651;DHT22;1335;48.180;16.342;2022-09-13T09:25:41;32.60;99.90
2651;DHT22;1335;48.180;16.342;2022-09-13T09:28:20;32.00;99.90
2651;DHT22;1335;48.180;16.342;2022-09-13T09:30:54;31.80;99.90
2651;DHT22;1335;48.180;16.342;2022-09-13T09:33:34;33.20;99.90
2651;DHT22;1335;48.180;16.342;2022-09-13T09:36:24;32.60;99.90
2651;DHT22;1335;48.180;16.342;2022-09-13T09:39:11;33.20;99.90
2651;DHT22;1335;48.180;16.342;2022-09-13T09:41:46;32.80;99.90
2651;DHT22;1335;48.180;16.342;2022-09-13T09:44:18;31.80;99.90
2651;DHT22;1335;48.180;16.342;2022-09-13T09:46:48;29.60;99.90
2651;DHT22;1335;48.180;16.342;2022-09-13T09:49:25;29.60;99.90
2651;DHT22;1335;48.180;16.342;2022-09-13T09:52:14;32.70;99.90
2651;DHT22;1335;48.180;16.342;2022-09-13T09:54:44;34.50;99.90
2651;DHT22;1335;48.180;16.342;2022-09-13T09:57:13;34.40;99.90
2651;DHT22;1335;48.180;16.342;2022-09-13T09:59:41;32.60;99.90
2651;DHT22;1335;48.180;16.342;2022-09-13T10:02:15;27.70;99.90
2651;DHT22;1335;48.180;16.342;2022-09-13T10:04:53;30.10;99.90
2651;DHT22;1335;48.180;16.342;2022-09-13T10:07:27;32.30;99.90
2651;DHT22;1335;48.180;16.342;2022-09-13T10:09:59;32.00;99.90
2651;DHT22;1335;48.180;16.342;2022-09-13T10:12:37;32.70;99.90
2651;DHT22;1335;48.180;16.342;2022-09-13T10:15:14;33.90;99.90
2651;DHT22;1335;48.180;16.342;2022-09-13T10:18:03;32.80;99.90
2651;DHT22;1335;48.180;16.342;2022-09-13T10:20:32;34.00;99.90
2651;DHT22;1335;48.180;16.342;2022-09-13T10:23:17;32.40;99.90
2651;DHT22;1335;48.180;16.342;2022-09-13T10:26:08;33.10;99.90
2651;DHT22;1335;48.180;16.342;2022-09-13T10:28:43;35.30;99.90
2651;DHT22;1335;48.180;16.342;2022-09-13T10:31:13;34.50;99.90
2651;DHT22;1335;48.180;16.342;2022-09-13T10:33:57;33.80;99.90
2651;DHT22;1335;48.180;16.342;2022-09-13T10:36:47;33.00;99.90
2651;DHT22;1335;48.180;16.342;2022-09-13T10:39:25;31.90;99.90
2651;DHT22;1335;48.180;16.342;2022-09-13T10:41:55;33.90;99.90
2651;DHT22;1335;48.180;16.342;2022-09-13T10:44:39;34.30;99.90
2651;DHT22;1335;48.180;16.342;2022-09-13T10:47:12;36.90;99.90
2651;DHT22;1335;48.180;16.342;2022-09-13T10:49:49;34.30;99.90
2651;DHT22;1335;48.180;16.342;2022-09-13T10:52:34;32.20;99.90
2651;DHT22;1335;48.180;16.342;2022-09-13T10:55:28;31.10;99.90
2651;DHT22;1335;48.180;16.342;2022-09-13T10:58:16;29.50;99.90
2651;DHT22;1335;48.180;16.342;2022-09-13T11:03:55;33.90;99.90
2651;DHT22;1335;48.180;16.342;2022-09-13T11:06:31;35.40;99.90
2651;DHT22;1335;48.180;16.342;2022-09-13T11:09:14;33.00;99.90
2651;DHT22;1335;48.180;16.342;2022-09-13T11:11:48;35.00;99.90
2651;DHT22;1335;48.180;16.342;2022-09-13T11:14:36;35.80;99.90
2651;DHT22;1335;48.180;16.342;2022-09-13T11:17:20;36.70;99.90
2651;DHT22;1335;48.180;16.342;2022-09-13T11:20:15;33.20;99.90
2651;DHT22;1335;48.180;16.342;2022-09-13T11:23:13;32.70;99.90
2651;DHT22;1335;48.180;16.342;2022-09-13T11:26:10;34.00;99.90
2651;DHT22;1335;48.180;16.342;2022-09-13T11:28:50;34.80;99.90
2651;DHT22;1335;48.180;16.342;2022-09-13T11:31:40;32.20;99.90
2651;DHT22;1335;48.180;16.342;2022-09-13T11:34:26;31.40;99.90
2651;DHT22;1335;48.180;16.342;2022-09-13T11:37:31;33.80;99.90
2651;DHT22;1335;48.180;16.342;2022-09-13T11:40:16;35.10;99.90
2651;DHT22;1335;48.180;16.342;2022-09-13T11:43:00;35.80;99.90
2651;DHT22;1335;48.180;16.342;2022-09-13T11:45:34;35.10;99.90
2651;DHT22;1335;48.180;16.342;2022-09-13T11:48:31;32.40;99.90
2651;DHT22;1335;48.180;16.342;2022-09-13T11:51:04;31.90;99.90
2651;DHT22;1335;48.180;16.342;2022-09-13T11:53:56;33.50;99.90
2651;DHT22;1335;48.180;16.342;2022-09-13T11:56:45;33.70;99.90
2651;DHT22;1335;48.180;16.342;2022-09-13T11:59:19;35.20;99.90
2651;DHT22;1335;48.180;16.342;2022-09-13T12:01:51;34.40;99.90
2651;DHT22;1335;48.180;16.342;2022-09-13T12:04:27;33.60;99.90
2651;DHT22;1335;48.180;16.342;2022-09-13T12:07:00;33.60;99.90
2651;DHT22;1335;48.180;16.342;2022-09-13T12:09:34;33.40;99.90
2651;DHT22;1335;48.180;16.342;2022-09-13T12:12:04;30.30;99.90
2651;DHT22;1335;48.180;16.342;2022-09-13T12:14:39;27.10;99.90
2651;DHT22;1335;48.180;16.342;2022-09-13T12:17:34;26.00;99.90
2651;DHT22;1335;48.180;16.342;2022-09-13T12:20:16;26.20;99.90
2651;DHT22;1335;48.180;16.342;2022-09-13T12:23:04;26.20;99.90
2651;DHT22;1335;48.180;16.342;2022-09-13T12:25:58;26.50;99.90
2651;DHT22;1335;48.180;16.342;2022-09-13T12:28:36;27.00;99.90
2651;DHT22;1335;48.180;16.342;2022-09-13T12:31:10;29.20;99.90
2651;DHT22;1335;48.180;16.342;2022-09-13T12:33:58;29.70;99.90
2651;DHT22;1335;48.180;16.342;2022-09-13T12:40:02;30.50;99.90
2651;DHT22;1335;48.180;16.342;2022-09-13T12:46:44;27.60;99.90
2651;DHT22;1335;48.180;16.342;2022-09-13T13:00:23;29.30;99.90
2651;DHT22;1335;48.180;16.342;2022-09-13T13:03:03;28.20;99.90
2651;DHT22;1335;48.180;16.342;2022-09-13T13:05:49;28.80;99.90
2651;DHT22;1335;48.180;16.342;2022-09-13T13:08:27;26.70;99.90
2651;DHT22;1335;48.180;16.342;2022-09-13T13:11:01;27.20;99.90
2651;DHT22;1335;48.180;16.342;2022-09-13T13:13:35;25.90;99.90
2651;DHT22;1335;48.180;16.342;2022-09-13T13:16:31;26.30;99.90
2651;DHT22;1335;48.180;16.342;2022-09-13T13:19:04;24.50;99.90
2651;DHT22;1335;48.180;16.342;2022-09-13T13:21:36;25.30;99.90
2651;DHT22;1335;48.180;16.342;2022-09-13T13:24:43;25.80;99.90
2651;DHT22;1335;48.180;16.342;2022-09-13T13:27:38;25.60;99.90
2651;DHT22;1335;48.180;16.342;2022-09-13T13:30:53;26.20;99.90
2651;DHT22;1335;48.180;16.342;2022-09-13T13:33:27;26.40;99.90
2651;DHT22;1335;48.180;16.342;2022-09-13T13:36:20;27.70;99.90
2651;DHT22;1335;48.180;16.342;2022-09-13T13:38:49;28.30;99.90
2651;DHT22;1335;48.180;16.342;2022-09-13T13:41:48;27.70;99.90
2651;DHT22;1335;48.180;16.342;2022-09-13T13:45:04;26.50;99.90
2651;DHT22;1335;48.180;16.342;2022-09-13T13:56:47;25.30;99.90
2651;DHT22;1335;48.180;16.342;2022-09-13T13:59:25;24.30;99.90
2651;DHT22;1335;48.180;16.342;2022-09-13T14:05:06;26.00;99.90
2651;DHT22;1335;48.180;16.342;2022-09-13T14:07:59;27.10;99.90
2651;DHT22;1335;48.180;16.342;2022-09-13T14:10:46;25.40;99.90
2651;DHT22;1335;48.180;16.342;2022-09-13T14:13:41;25.50;99.90
2651;DHT22;1335;48.180;16.342;2022-09-13T14:16:21;25.70;99.90
2651;DHT22;1335;48.180;16.342;2022-09-13T14:19:09;26.00;99.90
2651;DHT22;1335;48.180;16.342;2022-09-13T14:21:39;24.30;99.90
2651;DHT22;1335;48.180;16.342;2022-09-13T14:24:20;24.80;99.90
2651;DHT22;1335;48.180;16.342;2022-09-13T14:26:52;25.10;99.90
2651;DHT22;1335;48.180;16.342;2022-09-13T14:29:21;24.70;99.90
2651;DHT22;1335;48.180;16.342;2022-09-13T14:31:52;24.30;99.90
2651;DHT22;1335;48.180;16.342;2022-09-13T14:34:22;24.90;99.90
2651;DHT22;1335;48.180;16.342;2022-09-13T14:36:51;24.70;99.90
2651;DHT22;1335;48.180;16.342;2022-09-13T14:39:22;24.40;99.90
2651;DHT22;1335;48.180;16.342;2022-09-13T14:41:58;24.40;99.90
2651;DHT22;1335;48.180;16.342;2022-09-13T14:44:29;24.40;99.90
2651;DHT22;1335;48.180;16.342;2022-09-13T14:47:03;24.10;99.90
2651;DHT22;1335;48.180;16.342;2022-09-13T14:49:38;24.60;99.90
2651;DHT22;1335;48.180;16.342;2022-09-13T14:52:14;23.60;99.90
2651;DHT22;1335;48.180;16.342;2022-09-13T14:54:46;24.20;99.90
2651;DHT22;1335;48.180;16.342;2022-09-13T14:57:21;24.50;99.90
2651;DHT22;1335;48.180;16.342;2022-09-13T14:59:52;24.80;99.90
2651;DHT22;1335;48.180;16.342;2022-09-13T15:02:24;23.80;99.90
2651;DHT22;1335;48.180;16.342;2022-09-13T15:04:53;24.20;99.90
2651;DHT22;1335;48.180;16.342;2022-09-13T15:07:26;24.50;99.90
2651;DHT22;1335;48.180;16.342;2022-09-13T15:10:08;24.00;99.90
2651;DHT22;1335;48.180;16.342;2022-09-13T15:12:36;24.00;99.90
2651;DHT22;1335;48.180;16.342;2022-09-13T15:15:39;24.30;99.90
2651;DHT22;1335;48.180;16.342;2022-09-13T15:18:23;24.20;99.90
2651;DHT22;1335;48.180;16.342;2022-09-13T15:20:51;24.40;99.90
2651;DHT22;1335;48.180;16.342;2022-09-13T15:23:22;24.10;99.90
2651;DHT22;1335;48.180;16.342;2022-09-13T15:25:55;23.80;99.90
2651;DHT22;1335;48.180;16.342;2022-09-13T15:28:25;24.10;99.90
2651;DHT22;1335;48.180;16.342;2022-09-13T15:30:55;23.70;99.90
2651;DHT22;1335;48.180;16.342;2022-09-13T15:33:29;23.50;99.90
2651;DHT22;1335;48.180;16.342;2022-09-13T15:39:12;23.30;99.90
2651;DHT22;1335;48.180;16.342;2022-09-13T15:41:51;23.00;99.90
2651;DHT22;1335;48.180;16.342;2022-09-13T15:44:20;23.20;99.90
2651;DHT22;1335;48.180;16.342;2022-09-13T15:46:51;23.20;99.90
2651;DHT22;1335;48.180;16.342;2022-09-13T15:49:20;22.80;99.90
2651;DHT22;1335;48.180;16.342;2022-09-13T15:51:52;22.90;99.90
2651;DHT22;1335;48.180;16.342;2022-09-13T15:54:20;22.60;99.90
2651;DHT22;1335;48.180;16.342;2022-09-13T15:57:12;23.00;99.90
2651;DHT22;1335;48.180;16.342;2022-09-13T15:59:42;23.10;99.90
2651;DHT22;1335;48.180;16.342;2022-09-13T16:02:18;22.70;99.90
2651;DHT22;1335;48.180;16.342;2022-09-13T16:04:51;23.20;99.90
2651;DHT22;1335;48.180;16.342;2022-09-13T16:07:35;22.70;99.90
2651;DHT22;1335;48.180;16.342;2022-09-13T16:10:03;22.50;99.90
2651;DHT22;1335;48.180;16.342;2022-09-13T16:12:35;22.60;99.90
2651;DHT22;1335;48.180;16.342;2022-09-13T16:15:05;23.60;99.90
2651;DHT22;1335;48.180;16.342;2022-09-13T16:17:34;22.80;99.90
2651;DHT22;1335;48.180;16.342;2022-09-13T16:20:04;22.70;99.90
2651;DHT22;1335;48.180;16.342;2022-09-13T16:22:33;22.60;99.90
2651;DHT22;1335;48.180;16.342;2022-09-13T16:25:08;22.60;99.90
2651;DHT22;1335;48.180;16.342;2022-09-13T16:27:47;22.40;99.90
2651;DHT22;1335;48.180;16.342;2022-09-13T16:30:19;22.70;99.90
2651;DHT22;1335;48.180;16.342;2022-09-13T16:32:57;22.50;99.90
2651;DHT22;1335;48.180;16.342;2022-09-13T16:35:37;22.20;99.90
2651;DHT22;1335;48.180;16.342;2022-09-13T16:38:05;22.60;99.90
2651;DHT22;1335;48.180;16.342;2022-09-13T16:40:32;22.90;99.90
2651;DHT22;1335;48.180;16.342;2022-09-13T16:43:01;23.00;99.90
2651;DHT22;1335;48.180;16.342;2022-09-13T16:45:30;22.40;99.90
2651;DHT22;1335;48.180;16.342;2022-09-13T16:47:57;22.40;99.90
2651;DHT22;1335;48.180;16.342;2022-09-13T16:50:27;22.30;99.90
2651;DHT22;1335;48.180;16.342;2022-09-13T16:52:57;22.20;99.90
2651;DHT22;1335;48.180;16.342;2022-09-13T16:55:27;22.30;99.90
2651;DHT22;1335;48.180;16.342;2022-09-13T16:57:55;22.60;99.90
2651;DHT22;1335;48.180;16.342;2022-09-13T17:00:24;22.20;99.90
2651;DHT22;1335;48.180;16.342;2022-09-13T17:02:55;22.90;99.90
2651;DHT22;1335;48.180;16.342;2022-09-13T17:05:23;22.20;99.90
2651;DHT22;1335;48.180;16.342;2022-09-13T17:07:52;22.40;99.90